createdAt,value
2022-09-18T00:01:16.319Z,6.10
2022-09-18T00:03:43.698Z,5.82
2022-09-18T00:06:13.679Z,5.50
2022-09-18T00:08:41.213Z,6.18
2022-09-18T00:11:09.989Z,5.93
2022-09-18T00:13:38.304Z,5.90
2022-09-18T00:16:07.446Z,6.00
2022-09-18T00:18:35.202Z,6.30
2022-09-18T00:21:10.764Z,6.45
2022-09-18T00:23:38.038Z,5.72
2022-09-18T00:26:05.719Z,6.35
2022-09-18T00:28:33.128Z,5.55
2022-09-18T00:31:25.901Z,6.63
2022-09-18T00:33:54.149Z,5.75
2022-09-18T00:36:21.096Z,4.53
2022-09-18T00:38:49.032Z,5.35
2022-09-18T00:41:25.917Z,5.85
2022-09-18T00:43:54.597Z,5.15
2022-09-18T00:46:45.613Z,5.57
2022-09-18T00:49:17.817Z,5.00
2022-09-18T00:51:48.198Z,5.75
2022-09-18T00:54:14.808Z,5.30
2022-09-18T00:56:42.526Z,4.90
2022-09-18T00:59:12.751Z,5.80
2022-09-18T01:01:39.571Z,5.10
2022-09-18T01:04:11.182Z,4.43
2022-09-18T01:09:42.283Z,4.93
2022-09-18T01:12:27.022Z,4.63
2022-09-18T01:14:56.317Z,4.18
2022-09-18T01:17:42.172Z,5.72
2022-09-18T01:20:35.356Z,5.15
2022-09-18T01:23:23.920Z,5.93
2022-09-18T01:26:09.255Z,6.43
2022-09-18T01:28:48.291Z,5.65
2022-09-18T01:31:32.385Z,6.20
2022-09-18T01:34:06.450Z,6.03
2022-09-18T01:36:36.730Z,6.50
2022-09-18T01:39:13.013Z,5.57
2022-09-18T01:41:41.596Z,6.60
2022-09-18T01:44:14.700Z,6.20
2022-09-18T01:46:44.623Z,6.45
2022-09-18T01:49:19.949Z,6.05
2022-09-18T01:52:00.397Z,7.10
2022-09-18T01:54:32.811Z,5.90
2022-09-18T01:57:13.986Z,7.35
2022-09-18T02:00:08.993Z,6.32
2022-09-18T02:02:41.942Z,7.55
2022-09-18T02:05:12.270Z,6.80
2022-09-18T02:08:14.398Z,7.70
2022-09-18T02:11:01.642Z,7.00
2022-09-18T02:13:33.753Z,8.38
2022-09-18T02:16:07.873Z,7.80
2022-09-18T02:18:40.818Z,9.40
2022-09-18T02:21:14.639Z,10.52
2022-09-18T02:23:42.585Z,12.63
2022-09-18T02:26:11.808Z,9.95
2022-09-18T02:28:40.293Z,9.85
2022-09-18T02:31:07.041Z,10.05
2022-09-18T02:33:36.702Z,12.27
2022-09-18T02:36:09.642Z,10.60
2022-09-18T02:39:01.282Z,9.70
2022-09-18T02:41:27.958Z,9.20
2022-09-18T02:44:18.324Z,10.27
2022-09-18T02:46:59.865Z,10.32
2022-09-18T02:49:40.090Z,10.98
2022-09-18T02:52:14.776Z,9.70
2022-09-18T02:54:58.025Z,10.40
2022-09-18T02:57:35.724Z,9.70
2022-09-18T03:00:04.836Z,10.60
2022-09-18T03:02:31.641Z,10.20
2022-09-18T03:04:58.390Z,10.25
2022-09-18T03:07:25.340Z,10.35
2022-09-18T03:09:52.104Z,11.55
2022-09-18T03:12:18.866Z,10.75
2022-09-18T03:14:45.540Z,11.57
2022-09-18T03:17:13.032Z,10.82
2022-09-18T03:19:39.980Z,11.43
2022-09-18T03:22:07.153Z,10.73
2022-09-18T03:24:33.905Z,11.43
2022-09-18T03:27:00.683Z,11.32
2022-09-18T03:29:27.433Z,9.95
2022-09-18T03:31:54.988Z,10.55
2022-09-18T03:34:21.772Z,10.63
2022-09-18T03:36:48.519Z,11.35
2022-09-18T03:39:16.349Z,11.20
2022-09-18T03:41:43.272Z,10.77
2022-09-18T03:44:09.944Z,9.68
2022-09-18T03:46:36.674Z,10.63
2022-09-18T03:49:03.565Z,11.02
2022-09-18T03:51:30.399Z,11.23
2022-09-18T03:53:57.116Z,10.15
2022-09-18T03:56:23.796Z,9.90
2022-09-18T03:58:50.455Z,9.15
2022-09-18T04:01:17.142Z,8.93
2022-09-18T04:03:44.150Z,9.38
2022-09-18T04:06:11.128Z,9.55
2022-09-18T04:08:38.527Z,9.82
2022-09-18T04:11:06.112Z,9.48
2022-09-18T04:13:34.275Z,9.00
2022-09-18T04:16:01.419Z,9.43
2022-09-18T04:18:28.793Z,8.32
2022-09-18T04:20:55.517Z,9.32
2022-09-18T04:23:22.269Z,8.18
2022-09-18T04:25:49.312Z,8.27
2022-09-18T04:28:16.055Z,8.20
2022-09-18T04:30:42.933Z,9.40
2022-09-18T04:33:09.709Z,8.07
2022-09-18T04:35:36.527Z,9.13
2022-09-18T04:38:04.675Z,9.02
2022-09-18T04:40:31.532Z,8.80
2022-09-18T04:42:58.997Z,8.75
2022-09-18T04:45:25.763Z,9.43
2022-09-18T04:47:52.669Z,8.70
2022-09-18T04:50:19.334Z,8.48
2022-09-18T04:52:46.095Z,8.63
2022-09-18T04:55:12.875Z,7.97
2022-09-18T04:57:39.552Z,8.90
2022-09-18T05:00:07.370Z,8.45
2022-09-18T05:02:34.225Z,8.05
2022-09-18T05:05:01.009Z,8.38
2022-09-18T05:07:27.923Z,8.93
2022-09-18T05:09:55.724Z,8.32
2022-09-18T05:12:22.679Z,8.73
2022-09-18T05:14:49.361Z,8.63
2022-09-18T05:17:16.034Z,9.13
2022-09-18T05:19:43.431Z,8.25
2022-09-18T05:22:10.260Z,8.02
2022-09-18T05:24:36.942Z,8.95
2022-09-18T05:27:04.120Z,8.73
2022-09-18T05:29:31.157Z,9.70
2022-09-18T05:31:57.909Z,10.23
2022-09-18T05:34:24.633Z,8.98
2022-09-18T05:36:52.379Z,9.95
2022-09-18T05:39:19.075Z,9.00
2022-09-18T05:41:50.030Z,9.60
2022-09-18T05:44:17.442Z,8.77
2022-09-18T05:46:44.169Z,8.90
2022-09-18T05:49:11.105Z,8.40
2022-09-18T05:51:38.157Z,8.88
2022-09-18T05:54:06.183Z,9.23
2022-09-18T05:56:32.889Z,8.45
2022-09-18T05:58:59.752Z,8.02
2022-09-18T06:01:26.588Z,8.35
2022-09-18T06:03:53.595Z,8.07
2022-09-18T06:06:20.346Z,8.80
2022-09-18T06:08:47.130Z,8.88
2022-09-18T06:11:14.126Z,7.90
2022-09-18T06:13:40.855Z,8.30
2022-09-18T06:16:07.661Z,8.70
2022-09-18T06:18:34.469Z,9.05
2022-09-18T06:21:01.199Z,8.43
2022-09-18T06:23:29.679Z,8.43
2022-09-18T06:26:03.039Z,8.55
2022-09-18T06:28:34.313Z,7.43
2022-09-18T06:31:02.718Z,7.90
2022-09-18T06:33:29.656Z,8.73
2022-09-18T06:35:56.380Z,8.32
2022-09-18T06:38:23.478Z,6.30
2022-09-18T06:40:51.663Z,5.82
2022-09-18T06:43:19.808Z,3.97
2022-09-18T06:45:56.731Z,4.30
2022-09-18T06:48:24.808Z,3.50
2022-09-18T06:50:56.017Z,3.42
2022-09-18T06:53:24.010Z,2.83
2022-09-18T06:55:51.106Z,2.75
2022-09-18T06:58:19.829Z,3.00
2022-09-18T07:00:47.047Z,2.28
2022-09-18T07:03:14.117Z,2.10
2022-09-18T07:05:42.938Z,2.70
2022-09-18T07:08:10.434Z,2.30
2022-09-18T07:10:37.461Z,2.20
2022-09-18T07:13:04.667Z,2.30
2022-09-18T07:15:32.129Z,2.45
2022-09-18T07:18:00.250Z,2.38
2022-09-18T07:20:28.454Z,2.20
2022-09-18T07:23:00.619Z,2.15
2022-09-18T07:25:29.562Z,2.05
2022-09-18T07:27:56.276Z,1.77
2022-09-18T07:30:23.725Z,2.00
2022-09-18T07:32:50.604Z,1.90
2022-09-18T07:35:17.436Z,1.75
2022-09-18T07:37:44.227Z,1.92
2022-09-18T07:40:12.885Z,1.80
2022-09-18T07:42:40.207Z,1.77
2022-09-18T07:45:07.313Z,1.65
2022-09-18T07:47:34.569Z,1.20
2022-09-18T07:50:01.566Z,1.30
2022-09-18T07:52:28.907Z,1.30
2022-09-18T07:54:55.698Z,1.30
2022-09-18T07:57:22.906Z,1.27
2022-09-18T07:59:49.621Z,1.35
2022-09-18T08:02:16.609Z,1.20
2022-09-18T08:04:43.599Z,1.08
2022-09-18T08:07:12.048Z,0.90
2022-09-18T08:09:39.393Z,1.05
2022-09-18T08:12:06.266Z,1.38
2022-09-18T08:14:33.020Z,0.80
2022-09-18T08:17:00.231Z,0.82
2022-09-18T08:19:27.218Z,1.10
2022-09-18T08:21:53.961Z,1.23
2022-09-18T08:24:20.662Z,1.50
2022-09-18T08:26:47.525Z,0.93
2022-09-18T08:29:19.430Z,0.80
2022-09-18T08:31:47.450Z,0.90
2022-09-18T08:34:14.604Z,17.05
2022-09-18T08:36:41.365Z,1.30
2022-09-18T08:39:08.233Z,1.00
2022-09-18T08:41:50.049Z,1.05
2022-09-18T08:44:28.848Z,0.70
2022-09-18T08:47:01.624Z,0.68
2022-09-18T08:49:41.228Z,0.90
2022-09-18T08:52:18.493Z,0.88
2022-09-18T08:55:06.246Z,0.80
2022-09-18T08:57:44.837Z,0.60
2022-09-18T09:00:16.642Z,0.40
2022-09-18T09:02:48.519Z,0.80
2022-09-18T09:05:20.547Z,0.90
2022-09-18T09:08:09.110Z,0.50
2022-09-18T09:10:39.531Z,0.50
2022-09-18T09:13:24.868Z,0.50
2022-09-18T09:15:59.893Z,0.60
2022-09-18T09:18:56.278Z,0.50
2022-09-18T09:21:30.256Z,0.60
2022-09-18T09:24:21.245Z,0.40
2022-09-18T09:26:53.119Z,0.60
2022-09-18T09:29:24.829Z,0.35
2022-09-18T09:31:55.950Z,0.47
2022-09-18T09:34:30.608Z,0.60
2022-09-18T09:37:01.987Z,0.52
2022-09-18T09:39:43.653Z,0.73
2022-09-18T09:42:32.336Z,0.52
2022-09-18T09:45:19.267Z,0.60
2022-09-18T09:47:50.476Z,0.55
2022-09-18T09:51:07.033Z,0.38
2022-09-18T09:53:33.954Z,0.47
2022-09-18T09:56:07.077Z,0.45
2022-09-18T09:59:21.571Z,0.38
2022-09-18T10:02:29.634Z,0.40
2022-09-18T10:05:05.407Z,0.32
2022-09-18T10:08:05.180Z,0.30
2022-09-18T10:10:41.470Z,0.40
2022-09-18T10:13:21.602Z,0.50
2022-09-18T10:15:51.924Z,0.30
2022-09-18T10:18:36.793Z,0.32
2022-09-18T10:21:17.513Z,0.50
2022-09-18T10:23:55.965Z,0.40
2022-09-18T10:26:48.693Z,0.40
2022-09-18T10:29:18.438Z,0.50
2022-09-18T10:31:57.008Z,0.50
2022-09-18T10:34:31.717Z,0.50
2022-09-18T10:36:58.763Z,0.40
2022-09-18T10:39:31.652Z,0.70
2022-09-18T10:42:00.454Z,0.50
2022-09-18T10:44:29.898Z,0.40
2022-09-18T10:47:08.198Z,1.15
2022-09-18T10:49:41.182Z,0.50
2022-09-18T10:52:32.232Z,0.40
2022-09-18T10:55:05.010Z,0.40
2022-09-18T10:57:46.783Z,0.50
2022-09-18T11:00:14.015Z,0.40
2022-09-18T11:02:47.540Z,0.50
2022-09-18T11:05:21.503Z,0.50
2022-09-18T11:07:54.101Z,0.30
2022-09-18T11:10:23.774Z,0.30
2022-09-18T11:12:55.875Z,0.28
2022-09-18T11:15:29.662Z,0.38
2022-09-18T11:17:58.745Z,0.20
2022-09-18T11:20:32.056Z,0.50
2022-09-18T11:23:29.055Z,0.82
2022-09-18T11:26:15.798Z,0.50
2022-09-18T11:28:42.697Z,0.60
2022-09-18T11:31:19.489Z,0.50
2022-09-18T11:33:54.080Z,1.08
2022-09-18T11:36:30.626Z,1.60
2022-09-18T11:38:59.955Z,1.38
2022-09-18T11:41:36.834Z,1.48
2022-09-18T11:44:28.574Z,0.60
2022-09-18T11:47:13.640Z,0.95
2022-09-18T11:49:46.243Z,0.40
2022-09-18T11:52:16.743Z,0.52
2022-09-18T11:54:46.884Z,0.60
2022-09-18T11:57:45.246Z,0.43
2022-09-18T12:00:16.257Z,0.73
2022-09-18T12:03:03.647Z,0.40
2022-09-18T12:05:52.521Z,0.60
2022-09-18T12:08:36.543Z,1.20
2022-09-18T12:11:16.719Z,1.02
2022-09-18T12:14:18.970Z,0.60
2022-09-18T12:17:02.320Z,0.47
2022-09-18T12:19:36.768Z,0.50
2022-09-18T12:22:18.937Z,0.80
2022-09-18T12:24:45.719Z,0.30
2022-09-18T12:28:00.005Z,0.30
2022-09-18T12:30:36.799Z,0.30
2022-09-18T12:33:25.299Z,0.43
2022-09-18T12:36:02.630Z,0.40
2022-09-18T12:38:48.262Z,0.60
2022-09-18T12:41:36.954Z,0.40
2022-09-18T12:44:11.860Z,0.40
2022-09-18T12:47:00.428Z,0.32
2022-09-18T12:49:27.364Z,0.30
2022-09-18T12:52:11.037Z,0.40
2022-09-18T12:54:58.151Z,1.45
2022-09-18T12:58:02.331Z,0.40
2022-09-18T13:00:30.546Z,1.08
2022-09-18T13:03:03.497Z,0.75
2022-09-18T13:05:42.860Z,0.63
2022-09-18T13:08:28.065Z,0.40
2022-09-18T13:11:01.047Z,0.35
2022-09-18T13:13:43.803Z,0.40
2022-09-18T13:16:32.488Z,0.43
2022-09-18T13:19:17.088Z,0.30
2022-09-18T13:21:47.019Z,0.52
2022-09-18T13:24:35.875Z,0.30
2022-09-18T13:27:07.034Z,0.50
2022-09-18T13:29:52.256Z,0.30
2022-09-18T13:32:23.146Z,0.50
2022-09-18T13:34:54.248Z,0.20
2022-09-18T13:37:23.669Z,0.40
2022-09-18T13:40:14.651Z,0.50
2022-09-18T13:42:43.655Z,0.20
2022-09-18T13:45:27.521Z,0.50
2022-09-18T13:48:13.087Z,0.25
2022-09-18T13:50:51.982Z,0.20
2022-09-18T13:53:38.769Z,0.40
2022-09-18T13:56:13.489Z,0.28
2022-09-18T13:58:53.504Z,0.40
2022-09-18T14:01:42.161Z,0.63
2022-09-18T14:04:40.114Z,0.30
2022-09-18T14:07:27.093Z,0.30
2022-09-18T14:10:06.933Z,0.22
2022-09-18T14:12:35.690Z,0.32
2022-09-18T14:15:06.535Z,0.50
2022-09-18T14:17:35.084Z,0.40
2022-09-18T14:20:11.334Z,0.40
2022-09-18T14:22:40.407Z,0.30
2022-09-18T14:25:11.935Z,0.75
2022-09-18T14:28:03.354Z,0.30
2022-09-18T14:30:31.545Z,0.50
2022-09-18T14:33:20.895Z,0.40
2022-09-18T14:35:57.398Z,0.20
2022-09-18T14:38:32.858Z,0.30
2022-09-18T14:41:09.328Z,0.50
2022-09-18T14:43:47.212Z,2.10
2022-09-18T14:46:22.714Z,0.65
2022-09-18T14:48:50.235Z,0.40
2022-09-18T14:51:19.464Z,0.50
2022-09-18T14:53:50.513Z,0.40
2022-09-18T14:56:23.746Z,0.47
2022-09-18T14:58:50.857Z,0.93
2022-09-18T15:01:24.481Z,0.60
2022-09-18T15:03:53.550Z,1.70
2022-09-18T15:06:25.297Z,1.30
2022-09-18T15:08:54.810Z,1.08
2022-09-18T15:11:24.891Z,0.88
2022-09-18T15:13:53.847Z,0.98
2022-09-18T15:16:30.081Z,1.20
2022-09-18T15:18:58.026Z,1.08
2022-09-18T15:21:33.254Z,1.20
2022-09-18T15:24:03.012Z,0.80
2022-09-18T15:26:43.408Z,0.60
2022-09-18T15:29:23.526Z,1.00
2022-09-18T15:31:51.339Z,1.65
2022-09-18T15:34:23.401Z,2.00
2022-09-18T15:37:03.387Z,1.70
2022-09-18T16:14:42.194Z,2.50
2022-09-18T16:17:33.781Z,2.20
2022-09-18T16:20:29.256Z,2.60
2022-09-18T16:23:15.350Z,2.28
2022-09-18T16:25:43.897Z,2.33
2022-09-18T16:28:26.117Z,2.00
2022-09-18T16:30:53.806Z,2.10
2022-09-18T16:33:29.287Z,2.15
2022-09-18T16:36:03.721Z,2.70
2022-09-18T16:38:32.554Z,2.38
2022-09-18T16:40:59.348Z,2.25
2022-09-18T16:43:26.335Z,7.45
2022-09-18T16:45:55.085Z,9.48
2022-09-18T16:48:23.831Z,5.68
2022-09-18T16:50:50.553Z,6.68
2022-09-18T16:53:17.624Z,3.33
2022-09-18T16:55:49.312Z,3.08
2022-09-18T16:58:18.158Z,2.92
2022-09-18T17:00:45.155Z,3.25
2022-09-18T17:03:12.249Z,3.60
2022-09-18T17:05:39.153Z,3.53
2022-09-18T17:08:06.233Z,4.30
2022-09-18T17:10:34.655Z,4.18
2022-09-18T17:13:02.690Z,4.38
2022-09-18T17:15:30.080Z,4.03
2022-09-18T17:17:57.570Z,3.50
2022-09-18T17:20:25.054Z,3.30
2022-09-18T17:22:52.243Z,2.33
2022-09-18T17:25:19.926Z,2.20
2022-09-18T17:27:48.112Z,2.63
2022-09-18T17:30:16.682Z,2.70
2022-09-18T17:32:43.870Z,5.57
2022-09-18T17:35:10.968Z,15.05
2022-09-18T17:37:38.068Z,14.52
2022-09-18T17:40:05.895Z,7.55
2022-09-18T17:42:34.012Z,8.68
2022-09-18T17:45:01.185Z,10.48
2022-09-18T17:47:28.568Z,9.82
2022-09-18T17:49:55.379Z,5.90
2022-09-18T17:52:23.165Z,4.00
2022-09-18T17:54:50.306Z,2.95
2022-09-18T17:57:17.659Z,3.28
2022-09-18T17:59:44.937Z,8.45
2022-09-18T18:02:13.600Z,12.07
2022-09-18T18:04:40.749Z,11.02
2022-09-18T18:07:07.777Z,9.02
2022-09-18T18:09:38.189Z,9.50
2022-09-18T18:12:05.914Z,10.48
2022-09-18T18:14:33.271Z,10.75
2022-09-18T18:17:01.217Z,18.75
2022-09-18T18:19:28.589Z,17.98
2022-09-18T18:21:55.503Z,19.65
2022-09-18T18:24:22.940Z,21.98
2022-09-18T18:26:50.290Z,17.13
2022-09-18T18:29:19.122Z,26.15
2022-09-18T18:31:48.376Z,64.93
2022-09-18T18:34:17.854Z,28.90
2022-09-18T18:36:45.440Z,16.67
2022-09-18T18:39:13.492Z,12.52
2022-09-18T18:41:41.543Z,11.85
2022-09-18T18:44:10.517Z,7.05
2022-09-18T18:46:38.757Z,5.57
2022-09-18T18:49:12.866Z,6.63
2022-09-18T18:51:46.157Z,7.45
2022-09-18T18:54:14.144Z,5.70
2022-09-18T18:56:41.854Z,6.30
2022-09-18T18:59:12.323Z,6.88
2022-09-18T19:01:39.839Z,5.60
2022-09-18T19:04:09.530Z,5.63
2022-09-18T19:06:39.777Z,5.50
2022-09-18T19:09:20.092Z,6.32
2022-09-18T19:11:48.988Z,6.27
2022-09-18T19:14:17.736Z,7.80
2022-09-18T19:16:47.257Z,7.97
2022-09-18T19:19:16.269Z,5.60
2022-09-18T19:21:43.777Z,5.60
2022-09-18T19:24:12.385Z,5.88
2022-09-18T19:26:40.658Z,5.78
2022-09-18T19:29:11.212Z,6.10
2022-09-18T19:31:40.353Z,5.88
2022-09-18T19:34:07.970Z,5.30
2022-09-18T19:36:35.047Z,5.45
2022-09-18T19:39:04.611Z,5.20
2022-09-18T19:41:41.917Z,5.85
2022-09-18T19:44:18.219Z,5.88
2022-09-18T19:46:46.392Z,6.30
2022-09-18T19:49:18.358Z,5.68
2022-09-18T19:51:46.255Z,5.50
2022-09-18T19:54:13.172Z,5.55
2022-09-18T19:56:47.449Z,4.45
2022-09-18T19:59:15.976Z,5.85
2022-09-18T20:01:43.583Z,6.32
2022-09-18T20:04:10.490Z,5.32
2022-09-18T20:06:39.098Z,4.63
2022-09-18T20:09:06.332Z,5.80
2022-09-18T20:11:33.091Z,5.85
2022-09-18T20:13:59.808Z,4.90
2022-09-18T20:16:26.695Z,6.50
2022-09-18T20:18:53.550Z,8.32
2022-09-18T20:21:20.380Z,6.57
2022-09-18T20:23:48.414Z,4.47
2022-09-18T20:26:18.231Z,3.88
2022-09-18T20:28:45.204Z,4.43
2022-09-18T20:31:14.423Z,3.67
2022-09-18T20:33:41.502Z,3.17
2022-09-18T20:36:11.539Z,3.20
2022-09-18T20:38:40.594Z,4.10
2022-09-18T20:41:14.056Z,4.38
2022-09-18T20:43:45.023Z,4.22
2022-09-18T20:46:16.290Z,3.80
2022-09-18T20:48:46.564Z,2.83
2022-09-18T20:51:15.537Z,2.63
2022-09-18T20:53:45.394Z,2.88
2022-09-18T20:56:14.618Z,2.55
2022-09-18T20:58:44.069Z,2.17
2022-09-18T21:01:18.337Z,2.20
2022-09-18T21:03:47.520Z,2.28
2022-09-18T21:06:22.694Z,2.03
2022-09-18T21:08:53.609Z,2.58
2022-09-18T21:11:27.987Z,2.50
2022-09-18T21:13:57.448Z,2.08
2022-09-18T21:16:26.397Z,1.65
2022-09-18T21:18:55.892Z,2.00
2022-09-18T21:21:23.221Z,1.80
2022-09-18T21:24:02.624Z,1.75
2022-09-18T21:26:41.724Z,1.88
2022-09-18T21:29:22.848Z,1.80
2022-09-18T21:31:54.166Z,1.50
2022-09-18T21:34:24.527Z,1.70
2022-09-18T21:36:55.177Z,1.58
2022-09-18T21:39:22.300Z,1.63
2022-09-18T21:41:49.056Z,1.20
2022-09-18T21:44:18.101Z,1.20
2022-09-18T21:46:47.900Z,0.98
2022-09-18T21:49:16.485Z,1.10
2022-09-18T21:51:43.921Z,1.02
2022-09-18T21:54:16.235Z,1.10
2022-09-18T21:56:44.589Z,0.98
2022-09-18T21:59:11.826Z,1.13
2022-09-18T22:01:38.901Z,0.90
2022-09-18T22:04:07.434Z,0.98
2022-09-18T22:06:42.887Z,0.88
2022-09-18T22:09:18.436Z,1.05
2022-09-18T22:11:46.466Z,1.10
2022-09-18T22:14:16.923Z,0.90
2022-09-18T22:16:45.871Z,0.82
2022-09-18T22:19:13.582Z,0.90
2022-09-18T22:21:42.934Z,0.80
2022-09-18T22:24:15.232Z,1.00
2022-09-18T22:26:45.037Z,0.80
2022-09-18T22:29:20.735Z,0.77
2022-09-18T22:31:49.471Z,0.95
2022-09-18T22:34:19.836Z,1.00
2022-09-18T22:36:47.986Z,0.88
2022-09-18T22:39:16.564Z,2.08
2022-09-18T22:41:43.842Z,1.10
2022-09-18T22:44:11.329Z,0.90
2022-09-18T22:46:40.181Z,0.90
2022-09-18T22:49:08.873Z,1.08
2022-09-18T22:51:35.905Z,0.70
2022-09-18T22:54:07.834Z,1.00
2022-09-18T22:56:47.528Z,1.10
2022-09-18T22:59:17.035Z,1.58
2022-09-18T23:01:49.191Z,1.30
2022-09-18T23:04:18.925Z,1.40
2022-09-18T23:06:47.517Z,1.17
2022-09-18T23:09:15.072Z,1.30
2022-09-18T23:11:42.690Z,1.45
2022-09-18T23:14:14.158Z,1.88
2022-09-18T23:16:41.114Z,1.23
2022-09-18T23:19:13.212Z,1.20
2022-09-18T23:21:39.973Z,1.50
2022-09-18T23:24:09.353Z,1.40
2022-09-18T23:26:41.967Z,0.77
2022-09-18T23:29:12.222Z,1.08
2022-09-18T23:31:41.677Z,1.10
2022-09-18T23:34:20.602Z,0.90
2022-09-18T23:36:52.651Z,0.40
2022-09-18T23:39:24.463Z,0.40
2022-09-18T23:41:52.388Z,0.50
2022-09-18T23:44:20.887Z,0.80
2022-09-18T23:46:48.299Z,1.10
2022-09-18T23:49:16.440Z,1.10
2022-09-18T23:51:48.468Z,0.70
2022-09-18T23:54:24.114Z,0.70
2022-09-18T23:56:51.730Z,0.50
2022-09-18T23:59:22.881Z,0.50
